sensor_id;sensor_type;location;lat;lon;timestamp;pressure;altitude;pressure_sealevel;temperature;humidity
29121;BME280;16191;49.548;8.658;2024-02-21T00:00:23;101361.81;;;8.21;100.00
29121;BME280;16191;49.548;8.658;2024-02-21T00:02:50;101368.75;;;8.19;100.00
29121;BME280;16191;49.548;8.658;2024-02-21T00:05:17;101362.75;;;8.14;100.00
29121;BME280;16191;49.548;8.658;2024-02-21T00:07:43;101364.44;;;8.18;100.00
29121;BME280;16191;49.548;8.658;2024-02-21T00:10:10;101357.50;;;8.17;100.00
29121;BME280;16191;49.548;8.658;2024-02-21T00:12:37;101355.66;;;8.25;100.00
29121;BME280;16191;49.548;8.658;2024-02-21T00:15:03;101352.13;;;8.30;100.00
29121;BME280;16191;49.548;8.658;2024-02-21T00:17:30;101348.75;;;8.23;100.00
29121;BME280;16191;49.548;8.658;2024-02-21T00:19:57;101344.50;;;8.19;100.00
29121;BME280;16191;49.548;8.658;2024-02-21T00:22:24;101341.09;;;8.12;100.00
29121;BME280;16191;49.548;8.658;2024-02-21T00:24:54;101339.38;;;8.13;100.00
29121;BME280;16191;49.548;8.658;2024-02-21T00:27:21;101334.06;;;8.20;100.00
29121;BME280;16191;49.548;8.658;2024-02-21T00:29:48;101341.78;;;8.26;100.00
29121;BME280;16191;49.548;8.658;2024-02-21T00:32:14;101336.66;;;8.22;100.00
29121;BME280;16191;49.548;8.658;2024-02-21T00:34:41;101331.59;;;8.11;100.00
29121;BME280;16191;49.548;8.658;2024-02-21T00:37:08;101333.13;;;8.24;100.00
29121;BME280;16191;49.548;8.658;2024-02-21T00:39:35;101323.59;;;8.23;100.00
29121;BME280;16191;49.548;8.658;2024-02-21T00:42:02;101311.56;;;8.19;100.00
29121;BME280;16191;49.548;8.658;2024-02-21T00:44:28;101308.19;;;8.11;100.00
29121;BME280;16191;49.548;8.658;2024-02-21T00:46:55;101316.97;;;8.01;100.00
29121;BME280;16191;49.548;8.658;2024-02-21T00:49:22;101308.13;;;8.17;100.00
29121;BME280;16191;49.548;8.658;2024-02-21T00:51:49;101294.25;;;8.17;100.00
29121;BME280;16191;49.548;8.658;2024-02-21T00:54:16;101289.09;;;8.14;100.00
29121;BME280;16191;49.548;8.658;2024-02-21T00:56:43;101282.25;;;8.07;100.00
29121;BME280;16191;49.548;8.658;2024-02-21T00:59:09;101278.78;;;8.08;100.00
29121;BME280;16191;49.548;8.658;2024-02-21T01:01:36;101271.78;;;8.13;100.00
29121;BME280;16191;49.548;8.658;2024-02-21T01:04:03;101274.38;;;8.13;100.00
29121;BME280;16191;49.548;8.658;2024-02-21T01:06:30;101278.84;;;8.03;100.00
29121;BME280;16191;49.548;8.658;2024-02-21T01:08:57;101277.13;;;8.02;100.00
29121;BME280;16191;49.548;8.658;2024-02-21T01:11:23;101284.09;;;8.00;100.00
29121;BME280;16191;49.548;8.658;2024-02-21T01:13:50;101269.25;;;8.07;100.00
29121;BME280;16191;49.548;8.658;2024-02-21T01:16:17;101258.06;;;8.02;100.00
29121;BME280;16191;49.548;8.658;2024-02-21T01:18:44;101256.25;;;8.07;100.00
29121;BME280;16191;49.548;8.658;2024-02-21T01:21:10;101259.78;;;8.01;100.00
29121;BME280;16191;49.548;8.658;2024-02-21T01:23:37;101253.00;;;7.93;100.00
29121;BME280;16191;49.548;8.658;2024-02-21T01:26:04;101258.16;;;7.96;100.00
29121;BME280;16191;49.548;8.658;2024-02-21T01:28:31;101255.59;;;7.93;100.00
29121;BME280;16191;49.548;8.658;2024-02-21T01:30:58;101250.38;;;7.96;100.00
29121;BME280;16191;49.548;8.658;2024-02-21T01:33:25;101240.88;;;7.93;100.00
29121;BME280;16191;49.548;8.658;2024-02-21T01:35:52;101240.84;;;7.96;100.00
29121;BME280;16191;49.548;8.658;2024-02-21T01:38:19;101238.25;;;7.95;100.00
29121;BME280;16191;49.548;8.658;2024-02-21T01:40:46;101239.94;;;7.99;100.00
29121;BME280;16191;49.548;8.658;2024-02-21T01:43:17;101244.34;;;7.94;100.00
29121;BME280;16191;49.548;8.658;2024-02-21T01:45:53;101248.69;;;7.91;100.00
29121;BME280;16191;49.548;8.658;2024-02-21T01:48:21;101247.78;;;7.94;100.00
29121;BME280;16191;49.548;8.658;2024-02-21T01:50:49;101251.34;;;7.87;100.00
29121;BME280;16191;49.548;8.658;2024-02-21T01:53:19;101245.22;;;7.91;100.00
29121;BME280;16191;49.548;8.658;2024-02-21T01:55:47;101235.66;;;7.95;100.00
29121;BME280;16191;49.548;8.658;2024-02-21T01:58:15;101230.56;;;7.87;100.00
29121;BME280;16191;49.548;8.658;2024-02-21T02:00:43;101222.66;;;7.96;100.00
29121;BME280;16191;49.548;8.658;2024-02-21T02:03:10;101221.03;;;7.87;100.00
29121;BME280;16191;49.548;8.658;2024-02-21T02:05:45;101209.75;;;7.88;100.00
29121;BME280;16191;49.548;8.658;2024-02-21T02:08:16;101218.44;;;7.86;100.00
29121;BME280;16191;49.548;8.658;2024-02-21T02:10:43;101223.72;;;7.80;100.00
29121;BME280;16191;49.548;8.658;2024-02-21T02:13:11;101215.03;;;7.82;100.00
29121;BME280;16191;49.548;8.658;2024-02-21T02:15:46;101217.63;;;7.82;100.00
29121;BME280;16191;49.548;8.658;2024-02-21T02:18:14;101227.22;;;7.79;100.00
29121;BME280;16191;49.548;8.658;2024-02-21T02:20:41;101216.59;;;7.94;100.00
29121;BME280;16191;49.548;8.658;2024-02-21T02:25:48;101199.38;;;7.87;100.00
29121;BME280;16191;49.548;8.658;2024-02-21T02:28:15;101189.03;;;7.82;100.00
29121;BME280;16191;49.548;8.658;2024-02-21T02:30:43;101184.72;;;7.81;100.00
29121;BME280;16191;49.548;8.658;2024-02-21T02:33:09;101183.97;;;7.75;100.00
29121;BME280;16191;49.548;8.658;2024-02-21T02:35:36;101188.34;;;7.73;100.00
29121;BME280;16191;49.548;8.658;2024-02-21T02:38:04;101183.97;;;7.76;100.00
29121;BME280;16191;49.548;8.658;2024-02-21T02:40:32;101171.06;;;7.69;100.00
29121;BME280;16191;49.548;8.658;2024-02-21T02:43:00;101171.81;;;7.77;100.00
29121;BME280;16191;49.548;8.658;2024-02-21T02:45:27;101171.88;;;7.74;100.00
29121;BME280;16191;49.548;8.658;2024-02-21T02:47:54;101175.22;;;7.80;100.00
29121;BME280;16191;49.548;8.658;2024-02-21T02:50:21;101158.84;;;7.75;100.00
29121;BME280;16191;49.548;8.658;2024-02-21T02:53:07;101156.25;;;7.75;100.00
29121;BME280;16191;49.548;8.658;2024-02-21T02:55:55;101159.78;;;7.70;100.00
29121;BME280;16191;49.548;8.658;2024-02-21T02:58:45;101147.63;;;7.73;100.00
29121;BME280;16191;49.548;8.658;2024-02-21T03:01:35;101149.44;;;7.67;100.00
29121;BME280;16191;49.548;8.658;2024-02-21T03:04:22;101154.63;;;7.67;100.00
29121;BME280;16191;49.548;8.658;2024-02-21T03:07:09;101145.09;;;7.69;100.00
29121;BME280;16191;49.548;8.658;2024-02-21T03:09:38;101151.09;;;7.72;100.00
29121;BME280;16191;49.548;8.658;2024-02-21T03:12:06;101148.53;;;7.69;100.00
29121;BME280;16191;49.548;8.658;2024-02-21T03:14:32;101129.56;;;7.64;100.00
29121;BME280;16191;49.548;8.658;2024-02-21T03:16:59;101135.66;;;7.62;100.00
29121;BME280;16191;49.548;8.658;2024-02-21T03:19:27;101144.31;;;7.61;100.00
29121;BME280;16191;49.548;8.658;2024-02-21T03:21:55;101136.56;;;7.59;100.00
29121;BME280;16191;49.548;8.658;2024-02-21T03:24:21;101128.84;;;7.56;100.00
29121;BME280;16191;49.548;8.658;2024-02-21T03:26:48;101125.28;;;7.60;100.00
29121;BME280;16191;49.548;8.658;2024-02-21T03:29:17;101120.94;;;7.61;100.00
29121;BME280;16191;49.548;8.658;2024-02-21T03:31:44;101118.38;;;7.59;100.00
29121;BME280;16191;49.548;8.658;2024-02-21T03:34:11;101121.03;;;7.56;100.00
29121;BME280;16191;49.548;8.658;2024-02-21T03:36:38;101108.03;;;7.57;100.00
29121;BME280;16191;49.548;8.658;2024-02-21T03:39:05;101105.53;;;7.50;100.00
29121;BME280;16191;49.548;8.658;2024-02-21T03:41:31;101103.88;;;7.46;100.00
29121;BME280;16191;49.548;8.658;2024-02-21T03:43:58;101115.03;;;7.52;100.00
29121;BME280;16191;49.548;8.658;2024-02-21T03:46:27;101102.78;;;7.61;100.00
29121;BME280;16191;49.548;8.658;2024-02-21T03:48:54;101106.34;;;7.55;100.00
29121;BME280;16191;49.548;8.658;2024-02-21T03:51:21;101107.22;;;7.54;100.00
29121;BME280;16191;49.548;8.658;2024-02-21T03:53:48;101114.97;;;7.57;100.00
29121;BME280;16191;49.548;8.658;2024-02-21T03:56:14;101111.66;;;7.44;100.00
29121;BME280;16191;49.548;8.658;2024-02-21T03:58:41;101116.63;;;7.60;100.00
29121;BME280;16191;49.548;8.658;2024-02-21T04:01:08;101123.66;;;7.54;100.00
29121;BME280;16191;49.548;8.658;2024-02-21T04:03:35;101124.50;;;7.56;100.00
29121;BME280;16191;49.548;8.658;2024-02-21T04:06:03;101140.03;;;7.58;100.00
29121;BME280;16191;49.548;8.658;2024-02-21T04:08:29;101134.78;;;7.63;100.00
29121;BME280;16191;49.548;8.658;2024-02-21T04:10:56;101139.28;;;7.51;100.00
29121;BME280;16191;49.548;8.658;2024-02-21T04:13:23;101132.44;;;7.46;100.00
29121;BME280;16191;49.548;8.658;2024-02-21T04:15:50;101129.81;;;7.47;100.00
29121;BME280;16191;49.548;8.658;2024-02-21T04:18:17;101131.44;;;7.54;100.00
29121;BME280;16191;49.548;8.658;2024-02-21T04:20:44;101130.56;;;7.55;100.00
29121;BME280;16191;49.548;8.658;2024-02-21T04:23:11;101116.72;;;7.56;100.00
29121;BME280;16191;49.548;8.658;2024-02-21T04:25:37;101109.84;;;7.51;100.00
29121;BME280;16191;49.548;8.658;2024-02-21T04:28:04;101113.22;;;7.57;100.00
29121;BME280;16191;49.548;8.658;2024-02-21T04:30:31;101110.63;;;7.57;100.00
29121;BME280;16191;49.548;8.658;2024-02-21T04:32:58;101105.59;;;7.47;100.00
29121;BME280;16191;49.548;8.658;2024-02-21T04:35:25;101096.84;;;7.52;100.00
29121;BME280;16191;49.548;8.658;2024-02-21T04:37:52;101093.41;;;7.50;100.00
29121;BME280;16191;49.548;8.658;2024-02-21T04:40:18;101088.06;;;7.60;100.00
29121;BME280;16191;49.548;8.658;2024-02-21T04:42:45;101090.69;;;7.58;100.00
29121;BME280;16191;49.548;8.658;2024-02-21T04:45:12;101088.84;;;7.65;100.00
29121;BME280;16191;49.548;8.658;2024-02-21T04:47:39;101075.91;;;7.62;100.00
29121;BME280;16191;49.548;8.658;2024-02-21T04:50:06;101078.50;;;7.63;100.00
29121;BME280;16191;49.548;8.658;2024-02-21T04:52:34;101081.28;;;7.51;100.00
29121;BME280;16191;49.548;8.658;2024-02-21T04:55:01;101078.56;;;7.58;100.00
29121;BME280;16191;49.548;8.658;2024-02-21T04:57:28;101070.69;;;7.65;100.00
29121;BME280;16191;49.548;8.658;2024-02-21T04:59:55;101066.38;;;7.62;100.00
29121;BME280;16191;49.548;8.658;2024-02-21T05:02:22;101056.84;;;7.63;100.00
29121;BME280;16191;49.548;8.658;2024-02-21T05:04:50;101054.44;;;7.52;100.00
29121;BME280;16191;49.548;8.658;2024-02-21T05:07:17;101044.88;;;7.55;100.00
29121;BME280;16191;49.548;8.658;2024-02-21T05:09:45;101043.16;;;7.54;100.00
29121;BME280;16191;49.548;8.658;2024-02-21T05:12:12;101036.34;;;7.46;100.00
29121;BME280;16191;49.548;8.658;2024-02-21T05:14:39;101035.25;;;7.59;100.00
29121;BME280;16191;49.548;8.658;2024-02-21T05:17:05;101036.94;;;7.63;100.00
29121;BME280;16191;49.548;8.658;2024-02-21T05:19:32;101024.13;;;7.52;100.00
29121;BME280;16191;49.548;8.658;2024-02-21T05:21:59;101034.63;;;7.45;100.00
29121;BME280;16191;49.548;8.658;2024-02-21T05:24:26;101037.19;;;7.48;100.00
29121;BME280;16191;49.548;8.658;2024-02-21T05:26:53;101043.38;;;7.39;100.00
29121;BME280;16191;49.548;8.658;2024-02-21T05:29:20;101028.59;;;7.43;100.00
29121;BME280;16191;49.548;8.658;2024-02-21T05:34:17;101033.06;;;7.35;100.00
29121;BME280;16191;49.548;8.658;2024-02-21T05:36:44;101024.47;;;7.31;100.00
29121;BME280;16191;49.548;8.658;2024-02-21T05:39:12;101026.19;;;7.32;100.00
29121;BME280;16191;49.548;8.658;2024-02-21T05:41:39;101014.16;;;7.27;100.00
29121;BME280;16191;49.548;8.658;2024-02-21T05:44:05;101025.47;;;7.21;100.00
29121;BME280;16191;49.548;8.658;2024-02-21T05:46:33;101024.75;;;7.13;100.00
29121;BME280;16191;49.548;8.658;2024-02-21T05:48:59;101024.66;;;7.17;100.00
29121;BME280;16191;49.548;8.658;2024-02-21T05:51:26;101037.59;;;7.19;100.00
29121;BME280;16191;49.548;8.658;2024-02-21T05:53:53;101036.03;;;7.10;100.00
29121;BME280;16191;49.548;8.658;2024-02-21T05:56:19;101017.72;;;7.18;100.00
29121;BME280;16191;49.548;8.658;2024-02-21T05:58:46;101015.06;;;7.22;100.00
29121;BME280;16191;49.548;8.658;2024-02-21T06:01:13;101015.88;;;7.28;100.00
29121;BME280;16191;49.548;8.658;2024-02-21T06:03:40;101011.63;;;7.22;100.00
29121;BME280;16191;49.548;8.658;2024-02-21T06:06:07;101007.38;;;7.15;100.00
29121;BME280;16191;49.548;8.658;2024-02-21T06:08:33;100993.56;;;7.14;100.00
29121;BME280;16191;49.548;8.658;2024-02-21T06:11:00;100991.81;;;7.15;100.00
29121;BME280;16191;49.548;8.658;2024-02-21T06:13:27;100988.50;;;7.07;100.00
29121;BME280;16191;49.548;8.658;2024-02-21T06:15:54;100987.78;;;6.96;100.00
29121;BME280;16191;49.548;8.658;2024-02-21T06:18:21;100998.88;;;7.05;100.00
29121;BME280;16191;49.548;8.658;2024-02-21T06:20:47;101005.00;;;7.01;100.00
29121;BME280;16191;49.548;8.658;2024-02-21T06:23:16;101001.63;;;6.93;100.00
29121;BME280;16191;49.548;8.658;2024-02-21T06:25:45;101004.28;;;6.92;100.00
29121;BME280;16191;49.548;8.658;2024-02-21T06:28:14;100997.50;;;6.80;100.00
29121;BME280;16191;49.548;8.658;2024-02-21T06:30:41;101001.75;;;6.87;100.00
29121;BME280;16191;49.548;8.658;2024-02-21T06:33:08;101000.88;;;6.86;100.00
29121;BME280;16191;49.548;8.658;2024-02-21T06:35:35;101004.34;;;6.85;100.00
29121;BME280;16191;49.548;8.658;2024-02-21T06:38:01;101000.00;;;6.87;100.00
29121;BME280;16191;49.548;8.658;2024-02-21T06:40:28;100997.44;;;6.86;100.00
29121;BME280;16191;49.548;8.658;2024-02-21T06:42:55;100999.28;;;6.75;100.00
29121;BME280;16191;49.548;8.658;2024-02-21T06:45:22;100994.06;;;6.78;100.00
29121;BME280;16191;49.548;8.658;2024-02-21T06:47:48;100987.13;;;6.80;100.00
29121;BME280;16191;49.548;8.658;2024-02-21T06:50:15;100993.22;;;6.76;100.00
29121;BME280;16191;49.548;8.658;2024-02-21T06:52:42;100990.56;;;6.82;100.00
29121;BME280;16191;49.548;8.658;2024-02-21T06:55:09;100986.25;;;6.81;100.00
29121;BME280;16191;49.548;8.658;2024-02-21T06:57:35;100996.53;;;6.88;100.00
29121;BME280;16191;49.548;8.658;2024-02-21T07:00:02;101000.03;;;6.86;100.00
29121;BME280;16191;49.548;8.658;2024-02-21T07:02:30;100994.00;;;6.84;100.00
29121;BME280;16191;49.548;8.658;2024-02-21T07:04:57;101000.00;;;6.87;100.00
29121;BME280;16191;49.548;8.658;2024-02-21T07:07:24;101005.06;;;6.97;100.00
29121;BME280;16191;49.548;8.658;2024-02-21T07:09:51;101002.56;;;6.91;100.00
29121;BME280;16191;49.548;8.658;2024-02-21T07:12:20;101001.72;;;6.90;100.00
29121;BME280;16191;49.548;8.658;2024-02-21T07:14:47;101003.34;;;6.94;100.00
29121;BME280;16191;49.548;8.658;2024-02-21T07:17:14;100993.09;;;6.86;100.00
29121;BME280;16191;49.548;8.658;2024-02-21T07:19:42;100999.94;;;6.92;100.00
29121;BME280;16191;49.548;8.658;2024-02-21T07:22:09;100990.38;;;6.94;100.00
29121;BME280;16191;49.548;8.658;2024-02-21T07:24:35;100998.22;;;6.93;100.00
29121;BME280;16191;49.548;8.658;2024-02-21T07:27:04;100983.56;;;6.90;100.00
29121;BME280;16191;49.548;8.658;2024-02-21T07:29:32;100984.28;;;6.98;100.00
29121;BME280;16191;49.548;8.658;2024-02-21T07:31:59;100981.56;;;7.07;100.00
29121;BME280;16191;49.548;8.658;2024-02-21T07:34:26;100977.22;;;7.08;100.00
29121;BME280;16191;49.548;8.658;2024-02-21T07:36:53;100971.22;;;7.04;100.00
29121;BME280;16191;49.548;8.658;2024-02-21T07:39:19;100972.88;;;7.10;100.00
29121;BME280;16191;49.548;8.658;2024-02-21T07:41:46;100977.22;;;7.09;100.00
29121;BME280;16191;49.548;8.658;2024-02-21T07:44:15;100984.97;;;7.12;100.00
29121;BME280;16191;49.548;8.658;2024-02-21T07:46:42;100985.00;;;7.08;100.00
29121;BME280;16191;49.548;8.658;2024-02-21T07:49:09;100989.16;;;7.18;100.00
29121;BME280;16191;49.548;8.658;2024-02-21T07:51:36;100982.28;;;7.15;100.00
29121;BME280;16191;49.548;8.658;2024-02-21T07:54:03;100988.31;;;7.17;100.00
29121;BME280;16191;49.548;8.658;2024-02-21T07:56:30;100983.00;;;7.25;100.00
29121;BME280;16191;49.548;8.658;2024-02-21T07:58:57;100982.97;;;7.28;100.00
29121;BME280;16191;49.548;8.658;2024-02-21T08:01:24;100985.66;;;7.22;100.00
29121;BME280;16191;49.548;8.658;2024-02-21T08:03:52;100977.75;;;7.30;100.00
29121;BME280;16191;49.548;8.658;2024-02-21T08:06:19;100975.00;;;7.39;100.00
29121;BME280;16191;49.548;8.658;2024-02-21T08:08:46;100969.69;;;7.46;100.00
29121;BME280;16191;49.548;8.658;2024-02-21T08:11:13;100972.03;;;7.60;100.00
29121;BME280;16191;49.548;8.658;2024-02-21T08:13:40;100961.00;;;7.49;100.00
29121;BME280;16191;49.548;8.658;2024-02-21T08:16:06;100962.75;;;7.47;100.00
29121;BME280;16191;49.548;8.658;2024-02-21T08:18:33;100960.03;;;7.54;100.00
29121;BME280;16191;49.548;8.658;2024-02-21T08:21:03;100950.59;;;7.49;100.00
29121;BME280;16191;49.548;8.658;2024-02-21T08:23:30;100965.13;;;7.59;100.00
29121;BME280;16191;49.548;8.658;2024-02-21T08:25:57;100958.41;;;7.49;100.00
29121;BME280;16191;49.548;8.658;2024-02-21T08:28:23;100955.53;;;7.64;100.00
29121;BME280;16191;49.548;8.658;2024-02-21T08:30:50;100946.94;;;7.61;100.00
29121;BME280;16191;49.548;8.658;2024-02-21T08:33:16;100943.31;;;7.69;100.00
29121;BME280;16191;49.548;8.658;2024-02-21T08:35:44;100936.28;;;7.76;100.00
29121;BME280;16191;49.548;8.658;2024-02-21T08:38:11;100933.66;;;7.77;100.00
29121;BME280;16191;49.548;8.658;2024-02-21T08:40:37;100930.13;;;7.80;100.00
29121;BME280;16191;49.548;8.658;2024-02-21T08:43:04;100923.41;;;7.70;100.00
29121;BME280;16191;49.548;8.658;2024-02-21T08:45:31;100920.47;;;7.88;100.00
29121;BME280;16191;49.548;8.658;2024-02-21T08:47:57;100921.34;;;7.87;100.00
29121;BME280;16191;49.548;8.658;2024-02-21T08:50:24;100918.06;;;7.79;100.00
29121;BME280;16191;49.548;8.658;2024-02-21T08:52:55;100922.50;;;7.72;100.00
29121;BME280;16191;49.548;8.658;2024-02-21T08:55:22;100925.91;;;7.74;100.00
29121;BME280;16191;49.548;8.658;2024-02-21T08:57:49;100924.91;;;7.81;100.00
29121;BME280;16191;49.548;8.658;2024-02-21T09:00:16;100926.56;;;7.85;100.00
29121;BME280;16191;49.548;8.658;2024-02-21T09:02:42;100920.31;;;7.96;100.00
29121;BME280;16191;49.548;8.658;2024-02-21T09:05:10;100917.53;;;8.05;100.00
29121;BME280;16191;49.548;8.658;2024-02-21T09:07:38;100916.66;;;8.04;100.00
29121;BME280;16191;49.548;8.658;2024-02-21T09:10:05;100909.63;;;8.11;100.00
29121;BME280;16191;49.548;8.658;2024-02-21T09:12:33;100906.91;;;8.17;100.00
29121;BME280;16191;49.548;8.658;2024-02-21T09:15:00;100907.31;;;8.40;100.00
29121;BME280;16191;49.548;8.658;2024-02-21T09:17:26;100905.31;;;8.51;100.00
29121;BME280;16191;49.548;8.658;2024-02-21T09:19:55;100897.25;;;8.64;100.00
29121;BME280;16191;49.548;8.658;2024-02-21T09:22:27;100885.88;;;8.68;100.00
29121;BME280;16191;49.548;8.658;2024-02-21T09:24:53;100886.50;;;8.79;100.00
29121;BME280;16191;49.548;8.658;2024-02-21T09:27:20;100888.78;;;8.91;100.00
29121;BME280;16191;49.548;8.658;2024-02-21T09:29:47;100888.31;;;9.11;100.00
29121;BME280;16191;49.548;8.658;2024-02-21T09:32:14;100888.06;;;9.21;100.00
29121;BME280;16191;49.548;8.658;2024-02-21T09:34:40;100881.97;;;9.22;100.00
29121;BME280;16191;49.548;8.658;2024-02-21T09:37:07;100888.06;;;9.21;100.00
29121;BME280;16191;49.548;8.658;2024-02-21T09:39:34;100870.16;;;9.09;100.00
29121;BME280;16191;49.548;8.658;2024-02-21T09:42:06;100864.41;;;9.31;100.00
29121;BME280;16191;49.548;8.658;2024-02-21T09:44:38;100870.81;;;9.51;100.00
29121;BME280;16191;49.548;8.658;2024-02-21T09:47:24;100869.72;;;9.58;100.00
29121;BME280;16191;49.548;8.658;2024-02-21T09:49:57;100866.47;;;9.50;100.00
29121;BME280;16191;49.548;8.658;2024-02-21T09:52:26;100868.63;;;9.67;100.00
29121;BME280;16191;49.548;8.658;2024-02-21T09:54:53;100863.31;;;9.38;100.00
29121;BME280;16191;49.548;8.658;2024-02-21T09:57:21;100860.09;;;9.30;100.00
29121;BME280;16191;49.548;8.658;2024-02-21T09:59:49;100864.91;;;9.43;100.00
29121;BME280;16191;49.548;8.658;2024-02-21T10:02:16;100846.78;;;9.40;100.00
29121;BME280;16191;49.548;8.658;2024-02-21T10:04:43;100842.06;;;9.53;100.00
29121;BME280;16191;49.548;8.658;2024-02-21T10:07:10;100843.75;;;9.55;100.00
29121;BME280;16191;49.548;8.658;2024-02-21T10:09:37;100846.00;;;9.69;100.00
29121;BME280;16191;49.548;8.658;2024-02-21T10:12:08;100845.94;;;9.71;100.00
29121;BME280;16191;49.548;8.658;2024-02-21T10:14:37;100841.41;;;9.77;100.00
29121;BME280;16191;49.548;8.658;2024-02-21T10:17:04;100843.72;;;9.88;100.00
29121;BME280;16191;49.548;8.658;2024-02-21T10:19:36;100843.41;;;9.98;100.00
29121;BME280;16191;49.548;8.658;2024-02-21T10:22:07;100842.38;;;10.04;100.00
29121;BME280;16191;49.548;8.658;2024-02-21T10:24:35;100835.41;;;10.05;100.00
29121;BME280;16191;49.548;8.658;2024-02-21T10:27:09;100833.91;;;10.27;100.00
29121;BME280;16191;49.548;8.658;2024-02-21T10:29:39;100822.47;;;10.31;100.00
29121;BME280;16191;49.548;8.658;2024-02-21T10:32:11;100816.31;;;10.34;100.00
29121;BME280;16191;49.548;8.658;2024-02-21T10:34:40;100821.63;;;10.30;100.00
29121;BME280;16191;49.548;8.658;2024-02-21T10:37:08;100817.38;;;9.97;100.00
29121;BME280;16191;49.548;8.658;2024-02-21T10:39:40;100810.94;;;10.09;100.00
29121;BME280;16191;49.548;8.658;2024-02-21T10:42:10;100804.78;;;10.41;100.00
29121;BME280;16191;49.548;8.658;2024-02-21T10:44:38;100798.97;;;10.33;100.00
29121;BME280;16191;49.548;8.658;2024-02-21T10:47:11;100793.47;;;10.12;100.00
29121;BME280;16191;49.548;8.658;2024-02-21T10:49:41;100785.50;;;10.17;100.00
29121;BME280;16191;49.548;8.658;2024-02-21T10:55:04;100773.00;;;10.56;100.00
29121;BME280;16191;49.548;8.658;2024-02-21T10:57:35;100759.91;;;10.57;100.00
29121;BME280;16191;49.548;8.658;2024-02-21T11:00:02;100751.81;;;10.65;100.00
29121;BME280;16191;49.548;8.658;2024-02-21T11:02:30;100753.97;;;10.52;100.00
29121;BME280;16191;49.548;8.658;2024-02-21T11:04:58;100763.19;;;10.36;100.00
29121;BME280;16191;49.548;8.658;2024-02-21T11:07:26;100753.31;;;10.46;100.00
29121;BME280;16191;49.548;8.658;2024-02-21T11:09:53;100758.81;;;10.63;100.00
29121;BME280;16191;49.548;8.658;2024-02-21T11:12:24;100750.59;;;10.49;100.00
29121;BME280;16191;49.548;8.658;2024-02-21T11:14:52;100744.84;;;10.39;100.00
29121;BME280;16191;49.548;8.658;2024-02-21T11:17:19;100736.59;;;10.51;100.00
29121;BME280;16191;49.548;8.658;2024-02-21T11:19:49;100750.81;;;10.69;100.00
29121;BME280;16191;49.548;8.658;2024-02-21T11:22:20;100731.44;;;10.50;100.00
29121;BME280;16191;49.548;8.658;2024-02-21T11:24:49;100720.00;;;10.80;100.00
29121;BME280;16191;49.548;8.658;2024-02-21T11:27:19;100717.53;;;10.76;100.00
29121;BME280;16191;49.548;8.658;2024-02-21T11:29:58;100708.94;;;10.72;100.00
29121;BME280;16191;49.548;8.658;2024-02-21T11:32:26;100709.09;;;10.68;100.00
29121;BME280;16191;49.548;8.658;2024-02-21T11:35:00;100707.75;;;10.56;100.00
29121;BME280;16191;49.548;8.658;2024-02-21T11:37:35;100699.47;;;10.70;100.00
29121;BME280;16191;49.548;8.658;2024-02-21T11:40:05;100687.81;;;10.80;100.00
29121;BME280;16191;49.548;8.658;2024-02-21T11:42:39;100682.44;;;10.83;100.00
29121;BME280;16191;49.548;8.658;2024-02-21T11:45:06;100676.97;;;10.90;100.00
29121;BME280;16191;49.548;8.658;2024-02-21T11:47:35;100675.66;;;10.79;100.00
29121;BME280;16191;49.548;8.658;2024-02-21T11:50:09;100674.72;;;10.81;100.00
29121;BME280;16191;49.548;8.658;2024-02-21T11:52:36;100668.28;;;10.65;100.00
29121;BME280;16191;49.548;8.658;2024-02-21T11:55:03;100663.97;;;10.64;100.00
29121;BME280;16191;49.548;8.658;2024-02-21T11:57:32;100655.84;;;10.73;100.00
29121;BME280;16191;49.548;8.658;2024-02-21T11:59:58;100652.06;;;10.82;100.00
29121;BME280;16191;49.548;8.658;2024-02-21T12:02:30;100653.38;;;10.93;100.00
29121;BME280;16191;49.548;8.658;2024-02-21T12:04:57;100638.72;;;10.89;100.00
29121;BME280;16191;49.548;8.658;2024-02-21T12:07:24;100637.00;;;10.88;100.00
29121;BME280;16191;49.548;8.658;2024-02-21T12:09:52;100649.59;;;11.02;100.00
29121;BME280;16191;49.548;8.658;2024-02-21T12:12:20;100629.97;;;10.90;100.00
29121;BME280;16191;49.548;8.658;2024-02-21T12:14:57;100624.06;;;10.85;100.00
29121;BME280;16191;49.548;8.658;2024-02-21T12:17:27;100613.66;;;10.84;100.00
29121;BME280;16191;49.548;8.658;2024-02-21T12:19:53;100614.06;;;10.73;100.00
29121;BME280;16191;49.548;8.658;2024-02-21T12:22:20;100607.69;;;10.82;100.00
29121;BME280;16191;49.548;8.658;2024-02-21T12:24:47;100611.97;;;11.06;100.00
29121;BME280;16191;49.548;8.658;2024-02-21T12:27:15;100600.69;;;11.06;100.00
29121;BME280;16191;49.548;8.658;2024-02-21T12:29:42;100591.72;;;10.89;100.00
29121;BME280;16191;49.548;8.658;2024-02-21T12:32:08;100577.81;;;10.89;100.00
29121;BME280;16191;49.548;8.658;2024-02-21T12:34:37;100577.97;;;11.08;100.00
29121;BME280;16191;49.548;8.658;2024-02-21T12:37:19;100570.16;;;11.08;100.00
29121;BME280;16191;49.548;8.658;2024-02-21T12:39:47;100574.41;;;10.87;100.00
29121;BME280;16191;49.548;8.658;2024-02-21T12:42:14;100565.63;;;10.89;100.00
29121;BME280;16191;49.548;8.658;2024-02-21T12:44:41;100555.97;;;10.91;100.00
29121;BME280;16191;49.548;8.658;2024-02-21T12:47:08;100554.91;;;10.97;100.00
29121;BME280;16191;49.548;8.658;2024-02-21T12:49:35;100545.47;;;10.93;100.00
29121;BME280;16191;49.548;8.658;2024-02-21T12:52:03;100535.88;;;10.93;100.00
29121;BME280;16191;49.548;8.658;2024-02-21T12:54:30;100532.63;;;10.87;100.00
29121;BME280;16191;49.548;8.658;2024-02-21T12:56:58;100527.94;;;10.96;100.00
29121;BME280;16191;49.548;8.658;2024-02-21T12:59:29;100520.59;;;11.06;100.00